• Join FlightAware (Why Join?)
  • Login
  • US Flag 
12:57AM EDT


 

Airport Tracker/Info


-or-


 

Live Flight TrackerFlight Track Log ✈ RPA3498 ✈ 01-Aug-2013 ✈ KSAV - KPHL

Flight Track Log - Related Links

Times and Time Zones

All times are in EDT time to prevent confusion due to time zone crossing. See the RPA3498 flight status page for this flight to view local times or setup timezone preferences in your user account.

Time Position Orientation Groundspeed Altitude Reporting Facility
EDT Latitude Longitude Course Direction KTS MPH feet Rate Location/Type
03:17PM 32.1358 -81.3125 31° Northeast 231 266 2,400  Level Jacksonville Center
03:18PM 32.3774 -81.0257 31° Northeast  Level FlightAware Approximate
03:18PM 32.1922 -81.3142 359° North 284 327 4,400  Level Jacksonville Center
03:19PM 32.4642 -80.9637 31° Northeast  Level FlightAware Approximate
03:19PM 32.2561 -81.2564 37° Northeast 312 359 6,800  Level Jacksonville Center
03:20PM 32.5502 -80.8999 32° Northeast  Level FlightAware Approximate
03:20PM 32.3306 -81.1986 33° Northeast 293 337 9,500  Level Jacksonville Center
03:21PM 32.6361 -80.8362 31° Northeast  Level FlightAware Approximate
03:21PM 32.3967 -81.1433 35° Northeast 298 343 10,500  Level Jacksonville Center
03:22PM 32.7230 -80.7742 31° Northeast  Level FlightAware Approximate
03:22PM 32.4856 -81.0775 32° Northeast 331 381 12,600  Level Jacksonville Center
03:23PM 32.5619 -81.0169 34° Northeast 351 404 14,000 1,500 Climbing Jacksonville Center
03:24PM 32.6464 -80.9483 34° Northeast 356 410 15,600 1,620 Climbing Jacksonville Center
03:25PM 32.7308 -80.8775 35° Northeast 362 417 17,300 1,500 Climbing Jacksonville Center
03:26PM 32.8194 -80.8086 33° Northeast 367 422 18,600 1,200 Climbing Jacksonville Center
03:27PM 32.9103 -80.7397 32° Northeast 373 429 19,800 1,080 Climbing Jacksonville Center
03:28PM 32.9986 -80.6658 35° Northeast 373 429 20,800 1,500 Climbing Jacksonville Center
03:29PM 33.0914 -80.5942 33° Northeast 384 442 22,900 1,980 Climbing Jacksonville Center
03:30PM 33.1881 -80.5172 34° Northeast 384 442 24,800 1,200 Climbing Jacksonville Center
03:31PM 33.2825 -80.4428 33° Northeast 384 442 25,400 600 Climbing Jacksonville Center
03:32PM 33.3811 -80.3628 34° Northeast 404 465 26,100 840 Climbing Jacksonville Center
03:33PM 33.4817 -80.2803 34° Northeast 424 488 27,100 900 Climbing Jacksonville Center
03:34PM 33.5864 -80.1950 34° Northeast 439 505 28,000 900 Climbing Jacksonville Center
03:35PM 33.6931 -80.1069 34° Northeast 450 518 28,900 900 Climbing Jacksonville Center
03:36PM 33.8017 -80.0158 35° Northeast 464 534 29,800 720 Climbing Jacksonville Center
03:37PM 33.9100 -79.9272 34° Northeast 464 534 30,400 600 Climbing Jacksonville Center
03:38PM 34.0206 -79.8333 35° Northeast 469 540 31,000 660 Climbing Jacksonville Center
03:39PM 34.1372 -79.7414 33° Northeast 477 549 31,800 720 Climbing Jacksonville Center
03:40PM 34.2475 -79.6519 34° Northeast 482 555 32,500 780 Climbing Jacksonville Center
03:42PM 34.4658 -79.5342 24° Northeast 476 548 34,100 780 Climbing Washington Center
03:43PM 34.5908 -79.4719 22° Northeast 476 548 34,800 420 Climbing Washington Center
03:44PM 34.7139 -79.4072 23° Northeast 476 548 35,000 60 Climbing Washington Center
03:45PM 34.8369 -79.3422 23° Northeast 476 548 35,000  Level Washington Center
03:46PM 34.9600 -79.2769 23° Northeast 476 548 35,000  Level Washington Center
03:47PM 35.0831 -79.2139 23° Northeast 476 548 35,000  Level Washington Center
03:48PM 35.2061 -79.1483 24° Northeast 476 548 35,000  Level Washington Center
03:49PM 35.3333 -79.0775 24° Northeast 484 557 35,000  Level Washington Center
03:50PM 35.4519 -79.0164 23° Northeast 484 557 35,000  Level Washington Center
03:51PM 35.5792 -78.9478 24° Northeast 484 557 35,000  Level Washington Center
03:52PM 35.7019 -78.8814 24° Northeast 484 557 35,000  Level Washington Center
03:53PM 35.8100 -78.8219 24° Northeast 484 557 35,000  Level Washington Center
03:54PM 35.9328 -78.7525 25° Northeast 484 557 35,000  Level Washington Center
03:55PM 36.0556 -78.6853 24° Northeast 484 557 35,000  Level Washington Center
03:56PM 36.1783 -78.6131 25° Northeast 484 557 35,000  Level Washington Center
03:57PM 36.3011 -78.5456 24° Northeast 484 557 35,000  Level Washington Center
03:58PM 36.4239 -78.4753 25° Northeast 484 557 35,000  Level Washington Center
03:59PM 36.5486 -78.4025 25° Northeast 484 557 35,000  Level Washington Center
04:00PM 36.6714 -78.3317 25° Northeast 489 563 35,000  Level Washington Center
04:01PM 36.8025 -78.2558 25° Northeast 484 557 35,000  Level Washington Center
04:02PM 36.9272 -78.1822 25° Northeast 484 557 35,000  Level Washington Center
04:03PM 37.0497 -78.1083 26° Northeast 489 563 35,000  Level Washington Center
04:04PM 37.1742 -78.0369 25° Northeast 489 563 35,000  Level Washington Center
04:05PM 37.2989 -77.9625 25° Northeast 489 563 35,000 -1,200 Level Washington Center
04:06PM 37.4256 -77.8906 24° Northeast 489 563 32,700 -2,040 Descending Washington Center
04:07PM 37.5458 -77.8103 28° Northeast 489 563 31,000 -900 Descending Washington Center
04:08PM 37.6603 -77.7089 35° Northeast 494 568 31,000  Level Washington Center
04:09PM 37.7725 -77.6042 36° Northeast 494 568 31,000  Level Washington Center
04:10PM 37.8869 -77.5019 35° Northeast 500 575 31,000  Level Washington Center
04:11PM 38.0011 -77.3994 35° Northeast 505 581 31,000  Level Washington Center
04:12PM 38.1153 -77.2967 35° Northeast 505 581 31,000  Level Washington Center
04:13PM 38.2272 -77.1908 37° Northeast 505 581 31,000  Level Washington Center
04:14PM 38.3328 -77.0950 35° Northeast 510 587 31,000 -600 Level Washington Center
04:15PM 38.4467 -76.9886 36° Northeast 510 587 29,900 -1,920 Descending Washington Center
04:16PM 38.5561 -76.8847 37° Northeast 510 587 27,300 -2,520 Descending Washington Center
04:17PM 38.6636 -76.7828 37° Northeast 492 566 24,900 1,800 Descending Washington Center
04:18PM 38.7317 -76.6375 59° Northeast 451 519 31,000 -2,340 Climbing Washington Center
04:19PM 38.7536 -76.5019 78° East 422 486 20,300 -6,540 Descending Washington Center
04:20PM 38.7836 -76.3667 74° East 411 473 18,100 -2,280 Descending Washington Center
04:21PM 38.8117 -76.2311 75° East 395 455 15,800 -1,560 Descending Washington Center
04:22PM 38.8414 -76.1008 74° East 385 443 15,000 -480 Descending Washington Center
04:23PM 38.8689 -75.9675 75° East 379 436 14,900 -60 Descending Washington Center
04:24PM 38.9047 -75.8369 71° East 379 436 14,900  Level Washington Center
04:25PM 38.9842 -75.7544 39° Northeast 362 417 14,900 -1,200 Level Washington Center
04:27PM 39.2167 -75.6667 16° North 347 399 11,000 -1,560 Descending Philadelphia TRACON
04:28PM 39.3000 -75.6500 North 310 357 10,000 -1,380 Descending Philadelphia TRACON
04:29PM 39.3667 -75.5833 38° Northeast 297 342 8,400 -1,560 Descending Philadelphia TRACON
04:30PM 39.4167 -75.5333 38° Northeast 295 339 7,200 -1,260 Descending Philadelphia TRACON
04:31PM 39.4833 -75.5000 21° North 300 345 6,200 -660 Descending Philadelphia TRACON
04:32PM 39.5500 -75.5000 360° North 286 329 6,000 -120 Descending Philadelphia TRACON
04:33PM 39.6333 -75.5000 360° North 224 258 6,000  Level Philadelphia TRACON
04:34PM 39.6833 -75.5167 346° North 207 238 6,000  Level Philadelphia TRACON
04:35PM 39.6833 -75.5833 270° West 200 230 6,000 -300 Level Philadelphia TRACON
04:36PM 39.6833 -75.6500 270° West 182 209 5,500 -540 Descending Philadelphia TRACON
04:37PM 39.7333 -75.6667 346° North 185 213 5,000 -540 Descending Philadelphia TRACON
04:38PM 39.7667 -75.6167 49° Northeast 195 224 4,400 -720 Descending Philadelphia TRACON
04:39PM 39.8000 -75.5500 57° Northeast 190 219 3,500 -720 Descending Philadelphia TRACON
04:40PM 39.8167 -75.5000 67° East 188 216 3,000 -660 Descending Philadelphia TRACON
04:41PM 39.8333 -75.4333 72° East 190 219 2,300 -840 Descending Philadelphia TRACON
04:42PM 39.8500 -75.3667 72° East 187 215 1,500 -900 Descending Philadelphia TRACON
04:43PM 39.8500 -75.3167 90° East 136 157 600 -840 Descending Philadelphia TRACON